Weather observations for the past three days for
Bloomington, Monroe County Airport
Metric (Imperial)
Date Time (edt) Wind (kph) Vis. (km) Weather Sky Cond. Temperature (ºC) Relative Humidity Wind Chill (°C) Heat Index (°C) Pressure Precipitation (cm)
Air Dwpt 6 hour altimeter (cm) sea level (mb) 1 hr 3 hr 6 hr
Max. Min.
04 13:53 W 9 16.09 Fair CLR 33.9 22.2 33.9 23.3 50% 38 76.25 1015.7
04 12:53 W 9 16.09 Fair CLR 33.3 23.3 56% 39 76.28 1016.0
04 11:53 W 11 16.09 Fair CLR 32.2 23.3 59% 37 76.28 1016.1
04 10:53 W 13 16.09 Fair CLR 30.6 22.8 63% 35 76.28 1015.8
04 09:53 W 11 16.09 Fair CLR 29.4 22.2 65% 33 76.28 1015.9
04 08:53 SW 6 16.09 Fair CLR 26.7 22.8 79% 29 76.28 1015.9
04 07:53 Calm 16.09 Fair CLR 23.3 21.7 24.4 21.1 91% 76.2 1015.0
04 06:53 Calm 14.48 Fair CLR 21.7 21.7 100% 76.2 1014.8
04 05:53 Calm 16.09 Fair CLR 22.8 21.7 94% 76.17 1014.6
04 04:53 Calm 16.09 Fair CLR 22.8 22.2 96% 76.17 1014.5
04 03:53 Calm 16.09 Fair CLR 23.3 22.2 94% 76.17 1014.5
04 02:53 Calm 16.09 Fair CLR 24.4 22.2 88% 25 76.2 1014.7
04 01:53 Calm 16.09 Fair CLR 22.8 22.8 30 22.8 100% 76.2 1014.9
04 00:53 Calm 16.09 Fair CLR 24.4 22.8 91% 24 76.2 1014.7
03 23:53 Calm 16.09 Fair CLR 24.4 23.3 94% 24 76.17 1014.5
03 22:53 SE 6 16.09 Fair CLR 27.2 22.8 77% 30 76.2 1014.7
03 21:53 Calm 16.09 Fair CLR 26.1 23.3 85% 28 76.17 1014.7
03 20:53 Calm 16.09 Fair CLR 27.2 23.9 82% 30 76.15 1014.3
03 19:53 S 9 16.09 Fair CLR 30 23.3 35 30 67% 34 76.1 1013.7
03 18:53 S 9 16.09 Fair CLR 32.8 22.2 54% 37 76.1 1013.6
03 17:53 S 9 16.09 Fair CLR 33.9 21.7 49% 38 76.1 1013.6
03 16:53 W 9 16.09 A Few Clouds FEW065 34.4 21.1 46% 38 76.12 1014.0
03 15:53 W 13 16.09 Fair CLR 34.4 21.1 46% 38 76.17 1014.4
03 14:53 W 11 16.09 Fair CLR 33.9 21.7 49% 38 76.23 1015.0
03 13:53 SW 13 16.09 Fair CLR 33.3 21.7 33.9 21.7 51% 37 76.25 1015.5
03 12:53 SW 13 16.09 Fair CLR 32.8 22.8 56% 38 76.3 1016.0
03 11:53 W 7 16.09 Fair CLR 31.7 23.3 61% 37 76.33 1016.4
03 10:53 W 13 16.09 Fair CLR 30 22.2 63% 33 76.3 1016.4
03 09:53 SW 9 16.09 Fair CLR 28.3 22.8 72% 32 76.33 1016.5
03 08:53 S 6 16.09 Fair CLR 26.1 22.2 79% 28 76.35 1016.8
03 07:53 Calm 14.48 Fair CLR 21.7 21.1 24.4 21.1 96% 76.33 1016.8
03 06:53 Calm 14.48 Fair CLR 21.1 20.6 97% 76.3 1016.2
03 05:53 Calm 16.09 Fair CLR 21.7 21.7 100% 76.28 1016.0
03 04:53 Calm 16.09 Fair CLR 22.2 21.7 97% 76.28 1016.0
03 03:53 Calm 16.09 Fair CLR 23.3 22.2 94% 76.28 1015.7
03 02:53 Calm 16.09 Fair CLR 23.3 22.2 94% 76.25 1015.6
03 01:53 Calm 16.09 Fair CLR 23.9 22.8 30.6 23.9 94% 23 76.25 1015.6
03 00:53 SW 7 16.09 Fair CLR 26.1 22.2 79% 28 76.25 1015.4
02 23:53 S 11 16.09 Fair CLR 27.2 22.2 74% 30 76.23 1015.3
02 22:53 S 7 16.09 Fair CLR 26.7 22.8 79% 29 76.25 1015.4
02 21:53 S 11 16.09 Fair CLR 28.3 22.8 72% 32 76.23 1015.3
02 20:53 S 7 16.09 Fair CLR 28.9 23.3 72% 33 76.2 1015.0
02 19:53 S 9 16.09 Fair CLR 30.6 23.3 34.4 30.6 65% 35 76.2 1015.1
02 18:53 S 9 16.09 A Few Clouds FEW070 32.8 23.3 57% 38 76.2 1015.0
02 17:53 S 15 16.09 A Few Clouds FEW065 33.3 22.2 52% 38 76.23 1015.2
02 16:53 S 15 16.09 A Few Clouds FEW060 33.9 22.8 52% 39 76.25 1015.4
02 15:53 SW 9 16.09 Fair CLR 34.4 21.7 48% 38 76.28 1015.8
02 14:53 Vrbl 11 16.09 A Few Clouds FEW055 33.9 22.8 52% 39 76.33 1016.4
02 13:53 SW 15 16.09 Fair CLR 33.3 22.2 33.3 21.1 52% 38 76.35 1016.8
02 12:53 SW 15 16.09 Fair CLR 32.2 22.2 56% 36 76.4 1017.5
02 11:53 SW 15 16.09 Fair CLR 31.7 23.3 61% 37 76.43 1017.8
02 10:53 SW 13 16.09 Fair CLR 30 23.3 67% 34 76.4 1017.7
02 09:53 SW 11 16.09 Fair CLR 28.3 22.8 72% 32 76.43 1018.1
02 08:53 SW 7 16.09 Fair CLR 26.1 22.8 82% 28 76.43 1018.0
02 07:53 Calm 16.09 Fair CLR 21.1 20.6 25 21.1 97% 76.4 1017.9
02 06:53 Calm 16.09 Fair CLR 21.7 20.6 94% 76.38 1017.3
02 05:53 Calm 16.09 Fair CLR 22.8 21.1 90% 76.35 1017.0
02 04:53 SW 7 16.09 Fair CLR 23.3 21.1 88% 76.33 1016.6
02 03:53 SW 9 16.09 Fair CLR 23.9 21.7 88% 24 76.33 1016.4
02 02:53 Calm 16.09 Fair CLR 23.3 21.7 91% 76.33 1016.6
02 01:53 SW 6 16.09 Fair CLR 25 21.7 30 24.4 82% 26 76.33 1016.4
02 00:53 SW 9 16.09 Fair CLR 26.1 21.7 77% 28 76.3 1016.3
01 23:53 Calm 16.09 Fair CLR 25 22.2 85% 26 76.33 1016.6
01 22:53 S 6 16.09 Fair CLR 24.4 22.8 91% 24 76.33 1016.6
01 21:53 Calm 16.09 Fair CLR 26.1 22.8 82% 28 76.3 1016.4
01 20:53 S 7 16.09 Fair CLR 27.8 22.2 72% 30 76.25 1015.7
01 19:53 S 9 16.09 Fair CLR 30 23.3 34.4 30 67% 34 76.28 1015.8
01 18:53 S 11 16.09 Fair CLR 32.8 22.8 56% 38 76.28 1015.8
01 17:53 SW 9 16.09 Fair CLR 33.9 21.7 49% 38 76.25 1015.6
01 16:53 W 7 16.09 Fair CLR 34.4 21.1 46% 38 76.28 1015.7
01 15:53 W 9 16.09 Fair CLR 33.9 21.1 47% 37 76.3 1016.2
01 14:53 SW 9 16.09 Fair CLR 33.3 22.8 54% 38 76.35 1016.8
Date Time (edt) Wind (kph) Vis. (km) Weather Sky Cond. Air Dwpt Max. Min. Relative Humidity Wind Chill (°C) Heat Index (°C) altimeter (cm) sea level (mb) 1 hr 3 hr 6 hr
6 hour
Temperature (ºC) Pressure Precipitation (cm)